sensor_id;sensor_type;location;lat;lon;timestamp;P1;durP1;ratioP1;P2;durP2;ratioP2
24335;SDS011;33098;52.400;16.880;2022-09-11T00:00:52;9.50;;;8.10;;
24335;SDS011;33098;52.400;16.880;2022-09-11T00:03:28;9.90;;;8.30;;
24335;SDS011;33098;52.400;16.880;2022-09-11T00:06:00;11.80;;;8.50;;
24335;SDS011;33098;52.400;16.880;2022-09-11T00:08:29;11.30;;;8.00;;
24335;SDS011;33098;52.400;16.880;2022-09-11T00:11:13;9.80;;;8.20;;
24335;SDS011;33098;52.400;16.880;2022-09-11T00:13:45;12.30;;;8.40;;
24335;SDS011;33098;52.400;16.880;2022-09-11T00:16:17;9.50;;;8.10;;
24335;SDS011;33098;52.400;16.880;2022-09-11T00:18:48;10.10;;;8.20;;
24335;SDS011;33098;52.400;16.880;2022-09-11T00:21:16;11.50;;;8.40;;
24335;SDS011;33098;52.400;16.880;2022-09-11T00:23:43;12.30;;;8.80;;
24335;SDS011;33098;52.400;16.880;2022-09-11T00:26:09;11.00;;;8.90;;
24335;SDS011;33098;52.400;16.880;2022-09-11T00:28:36;9.70;;;8.20;;
24335;SDS011;33098;52.400;16.880;2022-09-11T00:31:05;9.60;;;8.10;;
24335;SDS011;33098;52.400;16.880;2022-09-11T00:33:33;9.60;;;7.90;;
24335;SDS011;33098;52.400;16.880;2022-09-11T00:36:01;9.80;;;8.20;;
24335;SDS011;33098;52.400;16.880;2022-09-11T00:38:32;10.80;;;8.20;;
24335;SDS011;33098;52.400;16.880;2022-09-11T00:41:00;10.40;;;7.70;;
24335;SDS011;33098;52.400;16.880;2022-09-11T00:43:29;11.10;;;8.20;;
24335;SDS011;33098;52.400;16.880;2022-09-11T00:46:15;11.00;;;7.80;;
24335;SDS011;33098;52.400;16.880;2022-09-11T00:48:42;8.70;;;7.00;;
24335;SDS011;33098;52.400;16.880;2022-09-11T00:51:22;9.90;;;7.50;;
24335;SDS011;33098;52.400;16.880;2022-09-11T00:53:58;9.20;;;7.70;;
24335;SDS011;33098;52.400;16.880;2022-09-11T00:56:28;9.00;;;7.30;;
24335;SDS011;33098;52.400;16.880;2022-09-11T00:58:57;9.60;;;7.00;;
24335;SDS011;33098;52.400;16.880;2022-09-11T01:01:26;7.50;;;6.60;;
24335;SDS011;33098;52.400;16.880;2022-09-11T01:03:52;8.20;;;6.70;;
24335;SDS011;33098;52.400;16.880;2022-09-11T01:06:21;9.30;;;7.00;;
24335;SDS011;33098;52.400;16.880;2022-09-11T01:08:49;8.00;;;6.90;;
24335;SDS011;33098;52.400;16.880;2022-09-11T01:17:14;12.00;;;7.40;;
24335;SDS011;33098;52.400;16.880;2022-09-11T01:28:23;8.50;;;6.10;;
24335;SDS011;33098;52.400;16.880;2022-09-11T01:31:01;8.10;;;6.50;;
24335;SDS011;33098;52.400;16.880;2022-09-11T01:33:38;8.30;;;6.40;;
24335;SDS011;33098;52.400;16.880;2022-09-11T01:36:18;7.90;;;6.70;;
24335;SDS011;33098;52.400;16.880;2022-09-11T01:38:55;7.50;;;6.40;;
24335;SDS011;33098;52.400;16.880;2022-09-11T01:41:26;8.80;;;6.80;;
24335;SDS011;33098;52.400;16.880;2022-09-11T01:44:01;7.90;;;6.80;;
24335;SDS011;33098;52.400;16.880;2022-09-11T01:46:33;9.10;;;7.00;;
24335;SDS011;33098;52.400;16.880;2022-09-11T01:49:16;8.20;;;6.60;;
24335;SDS011;33098;52.400;16.880;2022-09-11T01:51:46;8.00;;;6.40;;
24335;SDS011;33098;52.400;16.880;2022-09-11T01:54:18;8.00;;;6.70;;
24335;SDS011;33098;52.400;16.880;2022-09-11T01:56:52;10.20;;;7.00;;
24335;SDS011;33098;52.400;16.880;2022-09-11T01:59:23;7.40;;;6.20;;
24335;SDS011;33098;52.400;16.880;2022-09-11T02:01:58;9.30;;;6.40;;
24335;SDS011;33098;52.400;16.880;2022-09-11T02:04:31;7.90;;;6.10;;
24335;SDS011;33098;52.400;16.880;2022-09-11T02:07:04;7.20;;;6.00;;
24335;SDS011;33098;52.400;16.880;2022-09-11T02:09:46;7.40;;;6.10;;
24335;SDS011;33098;52.400;16.880;2022-09-11T02:12:25;8.80;;;6.60;;
24335;SDS011;33098;52.400;16.880;2022-09-11T02:14:59;6.90;;;5.90;;
24335;SDS011;33098;52.400;16.880;2022-09-11T02:17:44;7.60;;;6.20;;
24335;SDS011;33098;52.400;16.880;2022-09-11T02:20:17;7.50;;;6.10;;
24335;SDS011;33098;52.400;16.880;2022-09-11T02:22:46;8.40;;;5.80;;
24335;SDS011;33098;52.400;16.880;2022-09-11T02:25:14;7.30;;;6.20;;
24335;SDS011;33098;52.400;16.880;2022-09-11T02:30:11;7.70;;;6.70;;
24335;SDS011;33098;52.400;16.880;2022-09-11T02:32:40;8.70;;;6.90;;
24335;SDS011;33098;52.400;16.880;2022-09-11T02:35:10;7.60;;;6.60;;
24335;SDS011;33098;52.400;16.880;2022-09-11T02:40:41;9.50;;;7.30;;
24335;SDS011;33098;52.400;16.880;2022-09-11T02:52:01;10.60;;;7.40;;
24335;SDS011;33098;52.400;16.880;2022-09-11T03:00:02;11.10;;;7.90;;
24335;SDS011;33098;52.400;16.880;2022-09-11T03:02:32;10.00;;;8.10;;
24335;SDS011;33098;52.400;16.880;2022-09-11T03:05:03;9.40;;;7.80;;
24335;SDS011;33098;52.400;16.880;2022-09-11T03:07:30;11.80;;;8.50;;
24335;SDS011;33098;52.400;16.880;2022-09-11T03:09:58;10.00;;;8.20;;
24335;SDS011;33098;52.400;16.880;2022-09-11T03:12:25;9.00;;;7.40;;
24335;SDS011;33098;52.400;16.880;2022-09-11T03:14:52;10.60;;;7.70;;
24335;SDS011;33098;52.400;16.880;2022-09-11T03:17:20;10.80;;;8.80;;
24335;SDS011;33098;52.400;16.880;2022-09-11T03:19:47;11.50;;;7.70;;
24335;SDS011;33098;52.400;16.880;2022-09-11T03:22:13;11.70;;;8.40;;
24335;SDS011;33098;52.400;16.880;2022-09-11T03:24:40;10.80;;;8.60;;
24335;SDS011;33098;52.400;16.880;2022-09-11T03:27:08;12.40;;;8.20;;
24335;SDS011;33098;52.400;16.880;2022-09-11T03:29:34;11.40;;;9.90;;
24335;SDS011;33098;52.400;16.880;2022-09-11T03:32:01;13.20;;;9.90;;
24335;SDS011;33098;52.400;16.880;2022-09-11T03:34:28;11.70;;;9.90;;
24335;SDS011;33098;52.400;16.880;2022-09-11T03:36:55;14.30;;;11.90;;
24335;SDS011;33098;52.400;16.880;2022-09-11T03:39:21;14.20;;;11.80;;
24335;SDS011;33098;52.400;16.880;2022-09-11T03:41:48;15.10;;;11.60;;
24335;SDS011;33098;52.400;16.880;2022-09-11T03:44:15;13.10;;;10.90;;
24335;SDS011;33098;52.400;16.880;2022-09-11T03:46:43;16.10;;;12.30;;
24335;SDS011;33098;52.400;16.880;2022-09-11T03:49:10;16.50;;;12.50;;
24335;SDS011;33098;52.400;16.880;2022-09-11T03:51:36;16.10;;;12.40;;
24335;SDS011;33098;52.400;16.880;2022-09-11T03:54:03;17.80;;;12.70;;
24335;SDS011;33098;52.400;16.880;2022-09-11T03:56:30;17.50;;;12.90;;
24335;SDS011;33098;52.400;16.880;2022-09-11T03:58:57;16.10;;;12.60;;
24335;SDS011;33098;52.400;16.880;2022-09-11T04:01:27;15.00;;;12.20;;
24335;SDS011;33098;52.400;16.880;2022-09-11T04:03:54;17.80;;;13.30;;
24335;SDS011;33098;52.400;16.880;2022-09-11T04:06:27;17.70;;;12.30;;
24335;SDS011;33098;52.400;16.880;2022-09-11T04:08:54;18.20;;;12.80;;
24335;SDS011;33098;52.400;16.880;2022-09-11T04:11:20;20.10;;;13.80;;
24335;SDS011;33098;52.400;16.880;2022-09-11T04:13:48;19.20;;;14.40;;
24335;SDS011;33098;52.400;16.880;2022-09-11T04:16:17;17.50;;;13.10;;
24335;SDS011;33098;52.400;16.880;2022-09-11T04:18:47;15.50;;;12.70;;
24335;SDS011;33098;52.400;16.880;2022-09-11T04:21:16;18.70;;;13.80;;
24335;SDS011;33098;52.400;16.880;2022-09-11T04:23:49;17.70;;;14.30;;
24335;SDS011;33098;52.400;16.880;2022-09-11T04:26:18;19.50;;;14.60;;
24335;SDS011;33098;52.400;16.880;2022-09-11T04:28:49;17.40;;;13.80;;
24335;SDS011;33098;52.400;16.880;2022-09-11T04:31:17;18.20;;;13.80;;
24335;SDS011;33098;52.400;16.880;2022-09-11T04:33:45;18.70;;;13.40;;
24335;SDS011;33098;52.400;16.880;2022-09-11T04:36:14;20.80;;;14.30;;
24335;SDS011;33098;52.400;16.880;2022-09-11T04:38:43;20.10;;;13.80;;
24335;SDS011;33098;52.400;16.880;2022-09-11T04:41:12;18.90;;;14.20;;
24335;SDS011;33098;52.400;16.880;2022-09-11T04:43:40;19.30;;;14.40;;
24335;SDS011;33098;52.400;16.880;2022-09-11T04:46:13;17.50;;;13.00;;
24335;SDS011;33098;52.400;16.880;2022-09-11T04:48:42;19.10;;;14.20;;
24335;SDS011;33098;52.400;16.880;2022-09-11T04:54:15;19.50;;;13.80;;
24335;SDS011;33098;52.400;16.880;2022-09-11T04:56:44;19.10;;;13.00;;
24335;SDS011;33098;52.400;16.880;2022-09-11T04:59:18;20.20;;;13.60;;
24335;SDS011;33098;52.400;16.880;2022-09-11T05:01:54;16.70;;;13.10;;
24335;SDS011;33098;52.400;16.880;2022-09-11T05:04:22;19.80;;;13.20;;
24335;SDS011;33098;52.400;16.880;2022-09-11T05:06:48;16.10;;;12.60;;
24335;SDS011;33098;52.400;16.880;2022-09-11T05:09:16;15.90;;;12.60;;
24335;SDS011;33098;52.400;16.880;2022-09-11T05:11:45;18.00;;;13.30;;
24335;SDS011;33098;52.400;16.880;2022-09-11T05:14:13;17.10;;;13.70;;
24335;SDS011;33098;52.400;16.880;2022-09-11T05:16:41;17.60;;;13.90;;
24335;SDS011;33098;52.400;16.880;2022-09-11T05:19:09;17.60;;;13.20;;
24335;SDS011;33098;52.400;16.880;2022-09-11T05:21:37;18.60;;;14.00;;
24335;SDS011;33098;52.400;16.880;2022-09-11T05:24:04;16.90;;;12.60;;
24335;SDS011;33098;52.400;16.880;2022-09-11T05:26:33;18.20;;;13.20;;
24335;SDS011;33098;52.400;16.880;2022-09-11T05:29:03;18.40;;;13.70;;
24335;SDS011;33098;52.400;16.880;2022-09-11T05:31:36;17.10;;;13.30;;
24335;SDS011;33098;52.400;16.880;2022-09-11T05:34:03;17.50;;;13.60;;
24335;SDS011;33098;52.400;16.880;2022-09-11T05:36:31;17.40;;;14.20;;
24335;SDS011;33098;52.400;16.880;2022-09-11T05:38:59;18.50;;;14.10;;
24335;SDS011;33098;52.400;16.880;2022-09-11T05:41:26;19.30;;;13.70;;
24335;SDS011;33098;52.400;16.880;2022-09-11T05:43:53;17.50;;;13.40;;
24335;SDS011;33098;52.400;16.880;2022-09-11T05:46:20;17.50;;;13.20;;
24335;SDS011;33098;52.400;16.880;2022-09-11T05:48:49;17.80;;;12.70;;
24335;SDS011;33098;52.400;16.880;2022-09-11T05:51:16;17.20;;;13.20;;
24335;SDS011;33098;52.400;16.880;2022-09-11T05:53:50;17.20;;;12.70;;
24335;SDS011;33098;52.400;16.880;2022-09-11T05:56:19;15.80;;;12.80;;
24335;SDS011;33098;52.400;16.880;2022-09-11T05:58:49;17.00;;;12.20;;
24335;SDS011;33098;52.400;16.880;2022-09-11T06:01:21;14.60;;;11.80;;
24335;SDS011;33098;52.400;16.880;2022-09-11T06:03:52;13.70;;;10.80;;
24335;SDS011;33098;52.400;16.880;2022-09-11T06:06:21;12.80;;;10.00;;
24335;SDS011;33098;52.400;16.880;2022-09-11T06:08:48;12.10;;;9.70;;
24335;SDS011;33098;52.400;16.880;2022-09-11T06:11:15;10.90;;;9.70;;
24335;SDS011;33098;52.400;16.880;2022-09-11T06:13:44;13.60;;;9.70;;
24335;SDS011;33098;52.400;16.880;2022-09-11T06:16:13;12.00;;;9.10;;
24335;SDS011;33098;52.400;16.880;2022-09-11T06:18:41;12.50;;;10.00;;
24335;SDS011;33098;52.400;16.880;2022-09-11T06:21:09;12.30;;;9.80;;
24335;SDS011;33098;52.400;16.880;2022-09-11T06:23:46;10.30;;;9.20;;
24335;SDS011;33098;52.400;16.880;2022-09-11T06:26:15;11.00;;;9.00;;
24335;SDS011;33098;52.400;16.880;2022-09-11T06:28:44;11.60;;;9.80;;
24335;SDS011;33098;52.400;16.880;2022-09-11T06:31:14;10.10;;;8.90;;
24335;SDS011;33098;52.400;16.880;2022-09-11T06:33:42;11.10;;;9.00;;
24335;SDS011;33098;52.400;16.880;2022-09-11T06:36:10;11.10;;;9.30;;
24335;SDS011;33098;52.400;16.880;2022-09-11T06:38:43;10.40;;;9.20;;
24335;SDS011;33098;52.400;16.880;2022-09-11T06:41:12;10.90;;;8.60;;
24335;SDS011;33098;52.400;16.880;2022-09-11T06:43:40;9.40;;;7.70;;
24335;SDS011;33098;52.400;16.880;2022-09-11T06:46:08;9.00;;;8.00;;
24335;SDS011;33098;52.400;16.880;2022-09-11T06:48:40;8.30;;;7.20;;
24335;SDS011;33098;52.400;16.880;2022-09-11T06:51:09;7.70;;;6.90;;
24335;SDS011;33098;52.400;16.880;2022-09-11T06:53:37;7.20;;;6.50;;
24335;SDS011;33098;52.400;16.880;2022-09-11T06:56:12;7.20;;;6.50;;
24335;SDS011;33098;52.400;16.880;2022-09-11T06:58:42;7.70;;;6.80;;
24335;SDS011;33098;52.400;16.880;2022-09-11T07:01:11;7.50;;;6.80;;
24335;SDS011;33098;52.400;16.880;2022-09-11T07:03:41;7.80;;;6.90;;
24335;SDS011;33098;52.400;16.880;2022-09-11T07:06:12;7.90;;;6.90;;
24335;SDS011;33098;52.400;16.880;2022-09-11T07:08:40;7.50;;;6.80;;
24335;SDS011;33098;52.400;16.880;2022-09-11T07:11:07;8.50;;;7.60;;
24335;SDS011;33098;52.400;16.880;2022-09-11T07:13:36;7.60;;;6.90;;
24335;SDS011;33098;52.400;16.880;2022-09-11T07:16:05;7.30;;;6.20;;
24335;SDS011;33098;52.400;16.880;2022-09-11T07:18:34;9.30;;;6.80;;
24335;SDS011;33098;52.400;16.880;2022-09-11T07:21:06;7.60;;;6.90;;
24335;SDS011;33098;52.400;16.880;2022-09-11T07:23:38;7.10;;;6.40;;
24335;SDS011;33098;52.400;16.880;2022-09-11T07:26:08;7.80;;;7.00;;
24335;SDS011;33098;52.400;16.880;2022-09-11T07:28:37;7.00;;;6.30;;
24335;SDS011;33098;52.400;16.880;2022-09-11T07:31:09;7.40;;;6.50;;
24335;SDS011;33098;52.400;16.880;2022-09-11T07:33:38;7.20;;;6.50;;
24335;SDS011;33098;52.400;16.880;2022-09-11T07:36:11;7.00;;;6.30;;
24335;SDS011;33098;52.400;16.880;2022-09-11T07:38:42;6.90;;;6.20;;
24335;SDS011;33098;52.400;16.880;2022-09-11T07:41:12;7.30;;;6.60;;
24335;SDS011;33098;52.400;16.880;2022-09-11T07:43:41;7.30;;;6.60;;
24335;SDS011;33098;52.400;16.880;2022-09-11T07:46:11;6.80;;;6.20;;
24335;SDS011;33098;52.400;16.880;2022-09-11T07:48:39;6.70;;;5.90;;
24335;SDS011;33098;52.400;16.880;2022-09-11T07:51:10;7.20;;;6.50;;
24335;SDS011;33098;52.400;16.880;2022-09-11T07:53:42;6.70;;;6.00;;
24335;SDS011;33098;52.400;16.880;2022-09-11T07:56:11;6.30;;;5.70;;
24335;SDS011;33098;52.400;16.880;2022-09-11T08:01:20;9.00;;;6.30;;
24335;SDS011;33098;52.400;16.880;2022-09-11T08:03:56;8.40;;;6.50;;
24335;SDS011;33098;52.400;16.880;2022-09-11T08:06:27;6.60;;;6.00;;
24335;SDS011;33098;52.400;16.880;2022-09-11T08:08:57;8.00;;;5.90;;
24335;SDS011;33098;52.400;16.880;2022-09-11T08:11:26;6.70;;;6.00;;
24335;SDS011;33098;52.400;16.880;2022-09-11T08:13:54;7.30;;;6.30;;
24335;SDS011;33098;52.400;16.880;2022-09-11T08:16:23;6.40;;;5.80;;
24335;SDS011;33098;52.400;16.880;2022-09-11T08:18:51;6.40;;;5.80;;
24335;SDS011;33098;52.400;16.880;2022-09-11T08:21:20;6.40;;;5.80;;
24335;SDS011;33098;52.400;16.880;2022-09-11T08:23:47;7.10;;;5.60;;
24335;SDS011;33098;52.400;16.880;2022-09-11T08:26:16;5.90;;;5.20;;
24335;SDS011;33098;52.400;16.880;2022-09-11T08:28:55;5.90;;;5.30;;
24335;SDS011;33098;52.400;16.880;2022-09-11T08:31:24;6.60;;;5.60;;
24335;SDS011;33098;52.400;16.880;2022-09-11T08:33:55;6.70;;;5.20;;
24335;SDS011;33098;52.400;16.880;2022-09-11T08:38:50;5.70;;;4.80;;
24335;SDS011;33098;52.400;16.880;2022-09-11T08:41:29;6.00;;;5.20;;
24335;SDS011;33098;52.400;16.880;2022-09-11T08:46:36;6.80;;;5.10;;
24335;SDS011;33098;52.400;16.880;2022-09-11T08:51:40;7.00;;;5.30;;
24335;SDS011;33098;52.400;16.880;2022-09-11T08:54:09;6.60;;;4.60;;
24335;SDS011;33098;52.400;16.880;2022-09-11T08:56:47;5.00;;;4.40;;
24335;SDS011;33098;52.400;16.880;2022-09-11T08:59:22;4.60;;;4.10;;
24335;SDS011;33098;52.400;16.880;2022-09-11T09:02:09;7.20;;;4.70;;
24335;SDS011;33098;52.400;16.880;2022-09-11T09:13:44;4.50;;;3.40;;
24335;SDS011;33098;52.400;16.880;2022-09-11T09:16:24;4.50;;;3.80;;
24335;SDS011;33098;52.400;16.880;2022-09-11T09:19:07;3.90;;;3.60;;
24335;SDS011;33098;52.400;16.880;2022-09-11T09:24:35;3.30;;;2.90;;
24335;SDS011;33098;52.400;16.880;2022-09-11T09:27:17;3.00;;;2.70;;
24335;SDS011;33098;52.400;16.880;2022-09-11T09:29:54;4.20;;;2.90;;
24335;SDS011;33098;52.400;16.880;2022-09-11T09:32:30;3.90;;;3.20;;
24335;SDS011;33098;52.400;16.880;2022-09-11T09:35:03;3.70;;;3.30;;
24335;SDS011;33098;52.400;16.880;2022-09-11T09:37:37;3.50;;;3.00;;
24335;SDS011;33098;52.400;16.880;2022-09-11T09:40:06;4.50;;;3.10;;
24335;SDS011;33098;52.400;16.880;2022-09-11T09:45:17;3.80;;;2.90;;
24335;SDS011;33098;52.400;16.880;2022-09-11T09:47:45;3.80;;;3.10;;
24335;SDS011;33098;52.400;16.880;2022-09-11T09:50:23;4.40;;;3.20;;
24335;SDS011;33098;52.400;16.880;2022-09-11T09:53:05;3.70;;;3.20;;
24335;SDS011;33098;52.400;16.880;2022-09-11T09:55:37;4.00;;;3.40;;
24335;SDS011;33098;52.400;16.880;2022-09-11T09:58:05;4.50;;;3.70;;
24335;SDS011;33098;52.400;16.880;2022-09-11T10:00:34;4.20;;;3.80;;
24335;SDS011;33098;52.400;16.880;2022-09-11T10:05:59;6.30;;;3.80;;
24335;SDS011;33098;52.400;16.880;2022-09-11T10:08:26;4.60;;;3.80;;
24335;SDS011;33098;52.400;16.880;2022-09-11T10:13:33;5.00;;;3.60;;
24335;SDS011;33098;52.400;16.880;2022-09-11T10:16:04;4.70;;;3.50;;
24335;SDS011;33098;52.400;16.880;2022-09-11T10:18:45;4.80;;;3.70;;
24335;SDS011;33098;52.400;16.880;2022-09-11T10:23:46;4.00;;;3.60;;
24335;SDS011;33098;52.400;16.880;2022-09-11T10:26:16;3.50;;;3.20;;
24335;SDS011;33098;52.400;16.880;2022-09-11T10:28:48;3.70;;;3.30;;
24335;SDS011;33098;52.400;16.880;2022-09-11T10:31:14;3.30;;;3.00;;
24335;SDS011;33098;52.400;16.880;2022-09-11T10:33:46;5.90;;;3.30;;
24335;SDS011;33098;52.400;16.880;2022-09-11T10:36:21;4.10;;;3.40;;
24335;SDS011;33098;52.400;16.880;2022-09-11T10:38:50;4.70;;;3.10;;
24335;SDS011;33098;52.400;16.880;2022-09-11T10:41:23;4.50;;;3.10;;
24335;SDS011;33098;52.400;16.880;2022-09-11T10:43:55;3.30;;;3.00;;
24335;SDS011;33098;52.400;16.880;2022-09-11T10:46:27;3.70;;;3.20;;
24335;SDS011;33098;52.400;16.880;2022-09-11T10:51:29;3.00;;;2.70;;
24335;SDS011;33098;52.400;16.880;2022-09-11T10:56:31;3.40;;;3.00;;
24335;SDS011;33098;52.400;16.880;2022-09-11T10:59:04;3.60;;;3.20;;
24335;SDS011;33098;52.400;16.880;2022-09-11T11:01:37;4.20;;;3.20;;
24335;SDS011;33098;52.400;16.880;2022-09-11T11:04:04;3.80;;;3.00;;
24335;SDS011;33098;52.400;16.880;2022-09-11T11:25:51;4.00;;;3.60;;
24335;SDS011;33098;52.400;16.880;2022-09-11T11:31:42;6.10;;;3.80;;
24335;SDS011;33098;52.400;16.880;2022-09-11T11:34:47;7.00;;;4.10;;
24335;SDS011;33098;52.400;16.880;2022-09-11T11:37:31;3.90;;;3.50;;
24335;SDS011;33098;52.400;16.880;2022-09-11T11:43:04;4.10;;;3.60;;
24335;SDS011;33098;52.400;16.880;2022-09-11T11:45:45;4.80;;;4.20;;
24335;SDS011;33098;52.400;16.880;2022-09-11T11:50:48;5.10;;;4.00;;
24335;SDS011;33098;52.400;16.880;2022-09-11T11:53:26;5.10;;;3.90;;
24335;SDS011;33098;52.400;16.880;2022-09-11T12:01:58;4.20;;;3.80;;
24335;SDS011;33098;52.400;16.880;2022-09-11T12:04:41;4.70;;;3.70;;
24335;SDS011;33098;52.400;16.880;2022-09-11T12:09:45;4.60;;;4.10;;
24335;SDS011;33098;52.400;16.880;2022-09-11T12:12:17;5.00;;;3.60;;
24335;SDS011;33098;52.400;16.880;2022-09-11T12:14:49;5.30;;;4.00;;
24335;SDS011;33098;52.400;16.880;2022-09-11T12:17:28;5.40;;;4.20;;
24335;SDS011;33098;52.400;16.880;2022-09-11T12:20:32;4.70;;;4.10;;
24335;SDS011;33098;52.400;16.880;2022-09-11T12:23:26;5.70;;;3.80;;
24335;SDS011;33098;52.400;16.880;2022-09-11T12:26:14;6.20;;;4.20;;
24335;SDS011;33098;52.400;16.880;2022-09-11T12:28:44;5.60;;;4.30;;
24335;SDS011;33098;52.400;16.880;2022-09-11T12:31:11;4.80;;;4.10;;
24335;SDS011;33098;52.400;16.880;2022-09-11T12:36:09;6.40;;;4.10;;
24335;SDS011;33098;52.400;16.880;2022-09-11T12:41:39;4.80;;;4.30;;
24335;SDS011;33098;52.400;16.880;2022-09-11T12:44:16;6.20;;;4.30;;
24335;SDS011;33098;52.400;16.880;2022-09-11T12:49:21;6.30;;;4.40;;
24335;SDS011;33098;52.400;16.880;2022-09-11T12:51:52;6.10;;;4.50;;
24335;SDS011;33098;52.400;16.880;2022-09-11T12:56:57;7.70;;;5.10;;
24335;SDS011;33098;52.400;16.880;2022-09-11T12:59:31;6.30;;;4.70;;
24335;SDS011;33098;52.400;16.880;2022-09-11T13:02:04;5.70;;;4.70;;
24335;SDS011;33098;52.400;16.880;2022-09-11T13:04:58;7.30;;;5.50;;
24335;SDS011;33098;52.400;16.880;2022-09-11T13:07:33;6.30;;;5.20;;
24335;SDS011;33098;52.400;16.880;2022-09-11T13:10:08;7.50;;;5.30;;
24335;SDS011;33098;52.400;16.880;2022-09-11T13:12:59;6.40;;;5.10;;
24335;SDS011;33098;52.400;16.880;2022-09-11T13:15:29;7.50;;;5.10;;
24335;SDS011;33098;52.400;16.880;2022-09-11T13:18:14;6.80;;;5.00;;
24335;SDS011;33098;52.400;16.880;2022-09-11T13:20:55;5.60;;;5.00;;
24335;SDS011;33098;52.400;16.880;2022-09-11T13:23:27;6.40;;;4.90;;
24335;SDS011;33098;52.400;16.880;2022-09-11T13:25:54;5.80;;;4.70;;
24335;SDS011;33098;52.400;16.880;2022-09-11T13:28:23;5.90;;;4.70;;
24335;SDS011;33098;52.400;16.880;2022-09-11T13:30:56;6.00;;;4.90;;
24335;SDS011;33098;52.400;16.880;2022-09-11T13:33:25;5.20;;;4.60;;
24335;SDS011;33098;52.400;16.880;2022-09-11T13:35:55;7.50;;;4.90;;
24335;SDS011;33098;52.400;16.880;2022-09-11T13:38:25;5.30;;;4.70;;
24335;SDS011;33098;52.400;16.880;2022-09-11T13:40:59;5.80;;;4.40;;
24335;SDS011;33098;52.400;16.880;2022-09-11T13:43:39;5.90;;;4.20;;
24335;SDS011;33098;52.400;16.880;2022-09-11T13:48:42;6.20;;;4.70;;
24335;SDS011;33098;52.400;16.880;2022-09-11T13:51:13;6.30;;;4.60;;
24335;SDS011;33098;52.400;16.880;2022-09-11T13:53:53;4.80;;;4.10;;
24335;SDS011;33098;52.400;16.880;2022-09-11T14:05:17;6.20;;;4.90;;
24335;SDS011;33098;52.400;16.880;2022-09-11T14:15:42;5.70;;;4.50;;
24335;SDS011;33098;52.400;16.880;2022-09-11T14:18:30;5.50;;;4.60;;
24335;SDS011;33098;52.400;16.880;2022-09-11T14:23:50;5.90;;;4.20;;
24335;SDS011;33098;52.400;16.880;2022-09-11T14:26:22;5.10;;;4.20;;
24335;SDS011;33098;52.400;16.880;2022-09-11T14:29:05;4.80;;;4.30;;
24335;SDS011;33098;52.400;16.880;2022-09-11T14:34:48;6.70;;;4.30;;
24335;SDS011;33098;52.400;16.880;2022-09-11T14:37:15;7.40;;;4.60;;
24335;SDS011;33098;52.400;16.880;2022-09-11T14:39:42;5.90;;;3.90;;
24335;SDS011;33098;52.400;16.880;2022-09-11T14:42:17;6.40;;;4.00;;
24335;SDS011;33098;52.400;16.880;2022-09-11T14:44:46;3.80;;;3.40;;
24335;SDS011;33098;52.400;16.880;2022-09-11T14:47:17;3.90;;;3.20;;
24335;SDS011;33098;52.400;16.880;2022-09-11T14:49:45;5.10;;;3.10;;
24335;SDS011;33098;52.400;16.880;2022-09-11T14:52:12;3.10;;;2.70;;
24335;SDS011;33098;52.400;16.880;2022-09-11T14:54:41;3.30;;;2.70;;
24335;SDS011;33098;52.400;16.880;2022-09-11T14:57:11;4.00;;;3.00;;
24335;SDS011;33098;52.400;16.880;2022-09-11T14:59:40;3.30;;;2.70;;
24335;SDS011;33098;52.400;16.880;2022-09-11T15:02:11;3.60;;;2.80;;
24335;SDS011;33098;52.400;16.880;2022-09-11T15:04:39;3.90;;;3.00;;
24335;SDS011;33098;52.400;16.880;2022-09-11T15:07:09;3.80;;;2.90;;
24335;SDS011;33098;52.400;16.880;2022-09-11T15:09:38;3.10;;;2.80;;
24335;SDS011;33098;52.400;16.880;2022-09-11T15:12:05;4.50;;;3.00;;
24335;SDS011;33098;52.400;16.880;2022-09-11T15:14:33;4.30;;;3.10;;
24335;SDS011;33098;52.400;16.880;2022-09-11T15:17:02;4.20;;;2.80;;
24335;SDS011;33098;52.400;16.880;2022-09-11T15:19:30;4.40;;;3.20;;
24335;SDS011;33098;52.400;16.880;2022-09-11T15:21:57;4.70;;;3.20;;
24335;SDS011;33098;52.400;16.880;2022-09-11T15:24:24;3.40;;;2.90;;
24335;SDS011;33098;52.400;16.880;2022-09-11T15:26:52;3.90;;;3.20;;
24335;SDS011;33098;52.400;16.880;2022-09-11T15:29:19;4.30;;;3.10;;
24335;SDS011;33098;52.400;16.880;2022-09-11T15:31:47;3.40;;;2.70;;
24335;SDS011;33098;52.400;16.880;2022-09-11T15:34:14;6.10;;;3.30;;
24335;SDS011;33098;52.400;16.880;2022-09-11T15:36:41;5.80;;;3.10;;
24335;SDS011;33098;52.400;16.880;2022-09-11T15:39:12;2.90;;;2.60;;
24335;SDS011;33098;52.400;16.880;2022-09-11T15:41:41;3.30;;;2.80;;
24335;SDS011;33098;52.400;16.880;2022-09-11T15:44:20;3.30;;;3.00;;
24335;SDS011;33098;52.400;16.880;2022-09-11T15:46:50;3.70;;;3.20;;
24335;SDS011;33098;52.400;16.880;2022-09-11T15:49:18;3.70;;;2.70;;
24335;SDS011;33098;52.400;16.880;2022-09-11T15:51:47;3.90;;;3.10;;
24335;SDS011;33098;52.400;16.880;2022-09-11T15:54:14;4.90;;;3.40;;
24335;SDS011;33098;52.400;16.880;2022-09-11T15:56:42;3.50;;;2.80;;
24335;SDS011;33098;52.400;16.880;2022-09-11T15:59:09;4.40;;;3.10;;
24335;SDS011;33098;52.400;16.880;2022-09-11T16:01:37;3.30;;;2.80;;
24335;SDS011;33098;52.400;16.880;2022-09-11T16:04:08;3.40;;;2.90;;
24335;SDS011;33098;52.400;16.880;2022-09-11T16:06:38;3.60;;;2.80;;
24335;SDS011;33098;52.400;16.880;2022-09-11T16:11:59;3.80;;;3.40;;
24335;SDS011;33098;52.400;16.880;2022-09-11T16:14:28;4.10;;;3.10;;
24335;SDS011;33098;52.400;16.880;2022-09-11T16:16:58;3.50;;;3.00;;
24335;SDS011;33098;52.400;16.880;2022-09-11T16:19:26;3.60;;;2.80;;
24335;SDS011;33098;52.400;16.880;2022-09-11T16:21:54;3.80;;;3.00;;
24335;SDS011;33098;52.400;16.880;2022-09-11T16:24:23;3.80;;;2.90;;
24335;SDS011;33098;52.400;16.880;2022-09-11T16:26:52;4.70;;;3.20;;
24335;SDS011;33098;52.400;16.880;2022-09-11T16:29:22;4.00;;;2.60;;
24335;SDS011;33098;52.400;16.880;2022-09-11T16:31:51;3.60;;;2.90;;
24335;SDS011;33098;52.400;16.880;2022-09-11T16:34:17;5.10;;;3.40;;
24335;SDS011;33098;52.400;16.880;2022-09-11T16:36:44;3.10;;;2.60;;
24335;SDS011;33098;52.400;16.880;2022-09-11T16:39:12;4.40;;;2.70;;
24335;SDS011;33098;52.400;16.880;2022-09-11T16:41:41;4.70;;;2.90;;
24335;SDS011;33098;52.400;16.880;2022-09-11T16:44:09;2.80;;;2.50;;
24335;SDS011;33098;52.400;16.880;2022-09-11T16:46:38;4.30;;;3.00;;
24335;SDS011;33098;52.400;16.880;2022-09-11T16:49:06;3.30;;;3.00;;
24335;SDS011;33098;52.400;16.880;2022-09-11T16:51:33;3.30;;;3.00;;
24335;SDS011;33098;52.400;16.880;2022-09-11T16:53:59;3.30;;;3.00;;
24335;SDS011;33098;52.400;16.880;2022-09-11T16:56:27;4.00;;;2.90;;
24335;SDS011;33098;52.400;16.880;2022-09-11T16:58:54;3.20;;;2.90;;
24335;SDS011;33098;52.400;16.880;2022-09-11T17:01:21;3.50;;;2.80;;
24335;SDS011;33098;52.400;16.880;2022-09-11T17:03:50;4.00;;;2.80;;
24335;SDS011;33098;52.400;16.880;2022-09-11T17:06:19;3.50;;;3.10;;
24335;SDS011;33098;52.400;16.880;2022-09-11T17:08:48;3.90;;;3.20;;
24335;SDS011;33098;52.400;16.880;2022-09-11T17:11:16;4.30;;;2.90;;
24335;SDS011;33098;52.400;16.880;2022-09-11T17:13:45;3.10;;;2.80;;
24335;SDS011;33098;52.400;16.880;2022-09-11T17:16:19;5.60;;;3.20;;
24335;SDS011;33098;52.400;16.880;2022-09-11T17:18:50;3.40;;;3.10;;
24335;SDS011;33098;52.400;16.880;2022-09-11T17:23:48;6.00;;;3.30;;